createdAt,value
2017-01-27T00:00:49.036Z,-1.94
2017-01-27T00:02:11.525Z,-2.02
2017-01-27T00:03:32.448Z,-1.91
2017-01-27T00:04:54.058Z,-2.02
2017-01-27T00:06:15.720Z,-1.92
2017-01-27T00:07:37.548Z,-1.87
2017-01-27T00:08:58.814Z,-1.92
2017-01-27T00:10:20.796Z,-1.94
2017-01-27T00:11:42.467Z,-1.92
2017-01-27T00:13:04.177Z,-1.91
2017-01-27T00:14:25.836Z,-2.02
2017-01-27T00:15:48.135Z,-2.03
2017-01-27T00:17:10.199Z,-1.92
2017-01-27T00:18:31.585Z,-1.9
2017-01-27T00:19:54.076Z,-1.97
2017-01-27T00:21:16.839Z,-1.84
2017-01-27T00:22:38.528Z,-1.9
2017-01-27T00:24:01.054Z,-1.92
2017-01-27T00:25:22.310Z,-1.88
2017-01-27T00:26:45.025Z,-1.98
2017-01-27T00:28:06.716Z,-1.91
2017-01-27T00:29:28.865Z,-2.05
2017-01-27T00:30:50.119Z,-1.97
2017-01-27T00:32:12.874Z,-1.97
2017-01-27T00:33:34.604Z,-1.97
2017-01-27T00:34:56.741Z,-2.08
2017-01-27T00:36:18.816Z,-1.98
2017-01-27T00:37:40.845Z,-2
2017-01-27T00:39:03.378Z,-2.1
2017-01-27T00:40:25.957Z,-2.16
2017-01-27T00:41:48.020Z,-2.08
2017-01-27T00:43:11.240Z,-2.18
2017-01-27T00:44:32.976Z,-2.18
2017-01-27T00:45:55.518Z,-2.24
2017-01-27T00:47:17.666Z,-2.34
2017-01-27T00:48:40.027Z,-2.27
2017-01-27T00:50:02.515Z,-2.26
2017-01-27T00:51:25.132Z,-2.24
2017-01-27T00:52:46.804Z,-2.26
2017-01-27T00:54:09.520Z,-2.24
2017-01-27T00:55:31.592Z,-2.18
2017-01-27T00:56:54.049Z,-2.2
2017-01-27T00:58:15.305Z,-2.24
2017-01-27T00:59:37.236Z,-2.29
2017-01-27T01:00:59.060Z,-2.27
2017-01-27T01:02:21.137Z,-2.24
2017-01-27T01:03:43.315Z,-2.27
2017-01-27T01:05:05.662Z,-2.29
2017-01-27T01:06:26.918Z,-2.32
2017-01-27T01:07:48.177Z,-2.4
2017-01-27T01:09:10.744Z,-2.39
2017-01-27T01:10:32.258Z,-2.37
2017-01-27T01:11:54.333Z,-2.39
2017-01-27T01:13:16.097Z,-2.45
2017-01-27T01:14:38.147Z,-2.5
2017-01-27T01:16:00.939Z,-2.43
2017-01-27T01:17:23.023Z,-2.5
2017-01-27T01:18:45.146Z,-2.4
2017-01-27T01:20:06.819Z,-2.45
2017-01-27T01:21:29.575Z,-2.4
2017-01-27T01:22:51.659Z,-2.48
2017-01-27T01:24:13.338Z,-2.49
2017-01-27T01:25:35.788Z,-2.48
2017-01-27T01:26:58.547Z,-2.6
2017-01-27T01:28:21.453Z,-2.63
2017-01-27T01:29:43.251Z,-2.63
2017-01-27T01:31:05.728Z,-2.71
2017-01-27T01:32:28.035Z,-2.74
2017-01-27T01:33:50.494Z,-2.73
2017-01-27T01:35:11.791Z,-2.78
2017-01-27T01:36:33.847Z,-2.68
2017-01-27T01:37:56.144Z,-2.73
2017-01-27T01:39:17.792Z,-2.73
2017-01-27T01:40:39.889Z,-2.7
2017-01-27T01:42:01.596Z,-2.63
2017-01-27T01:43:23.548Z,-2.6
2017-01-27T01:44:46.028Z,-2.66
2017-01-27T01:46:08.137Z,-2.74
2017-01-27T01:47:30.226Z,-2.77
2017-01-27T01:48:53.029Z,-2.73
2017-01-27T01:50:15.159Z,-2.74
2017-01-27T01:51:38.037Z,-2.77
2017-01-27T01:52:59.747Z,-2.81
2017-01-27T01:54:22.832Z,-2.85
2017-01-27T01:55:44.545Z,-2.78
2017-01-27T01:57:05.821Z,-2.81
2017-01-27T01:58:27.482Z,-2.86
2017-01-27T01:59:49.806Z,-2.97
2017-01-27T02:01:11.863Z,-2.99
2017-01-27T02:02:34.331Z,-3.02
2017-01-27T02:03:55.599Z,-2.96
2017-01-27T02:05:17.910Z,-2.89
2017-01-27T02:06:39.561Z,-2.99
2017-01-27T02:08:00.851Z,-2.92
2017-01-27T02:09:22.521Z,-2.94
2017-01-27T02:10:44.592Z,-2.99
2017-01-27T02:12:05.866Z,-2.97
2017-01-27T02:13:27.923Z,-2.96
2017-01-27T02:14:50.418Z,-2.96
2017-01-27T02:16:12.736Z,-3
2017-01-27T02:17:34.492Z,-3.03
2017-01-27T02:18:56.188Z,-2.96
2017-01-27T02:20:17.938Z,-3.07
2017-01-27T02:21:41.060Z,-3.09
2017-01-27T02:23:02.428Z,-3.18
2017-01-27T02:24:25.007Z,-3.15
2017-01-27T02:25:46.715Z,-2.99
2017-01-27T02:27:08.628Z,-3.02
2017-01-27T02:28:30.805Z,-2.97
2017-01-27T02:29:52.857Z,-2.82
2017-01-27T02:31:14.532Z,-2.81
2017-01-27T02:32:37.278Z,-2.79
2017-01-27T02:33:59.726Z,-2.82
2017-01-27T02:35:21.802Z,-2.82
2017-01-27T02:36:44.699Z,-2.79
2017-01-27T02:38:07.059Z,-2.77
2017-01-27T02:39:28.737Z,-2.68
2017-01-27T02:40:51.656Z,-2.6
2017-01-27T02:42:13.315Z,-2.67
2017-01-27T02:43:34.879Z,-2.58
2017-01-27T02:44:57.443Z,-2.58
2017-01-27T02:46:19.107Z,-2.63
2017-01-27T02:47:40.355Z,-2.52
2017-01-27T02:49:03.076Z,-2.63
2017-01-27T02:50:24.798Z,-2.53
2017-01-27T02:51:46.521Z,-2.64
2017-01-27T02:53:08.631Z,-2.52
2017-01-27T02:54:31.498Z,-2.48
2017-01-27T02:55:53.598Z,-2.48
2017-01-27T02:57:15.348Z,-2.52
2017-01-27T02:58:37.408Z,-2.48
2017-01-27T03:00:00.100Z,-2.53
2017-01-27T03:01:22.542Z,-2.52
2017-01-27T03:02:44.324Z,-2.5
2017-01-27T03:04:06.830Z,-2.4
2017-01-27T03:05:28.868Z,-2.43
2017-01-27T03:06:50.581Z,-2.43
2017-01-27T03:08:12.659Z,-2.3
2017-01-27T03:09:34.781Z,-2.29
2017-01-27T03:10:56.730Z,-2.29
2017-01-27T03:12:18.829Z,-2.24
2017-01-27T03:13:40.929Z,-2.26
2017-01-27T03:15:03.028Z,-2.39
2017-01-27T03:16:24.671Z,-2.42
2017-01-27T03:17:46.816Z,-2.4
2017-01-27T03:19:08.526Z,-2.4
2017-01-27T03:20:31.138Z,-2.35
2017-01-27T03:21:53.516Z,-2.43
2017-01-27T03:23:15.731Z,-2.39
2017-01-27T03:24:38.198Z,-2.52
2017-01-27T03:25:59.943Z,-2.46
2017-01-27T03:27:21.469Z,-2.64
2017-01-27T03:28:43.165Z,-2.61
2017-01-27T03:30:05.223Z,-2.64
2017-01-27T03:31:27.371Z,-2.61
2017-01-27T03:32:49.406Z,-2.63
2017-01-27T03:34:11.470Z,-2.78
2017-01-27T03:35:33.172Z,-2.81
2017-01-27T03:36:54.428Z,-2.77
2017-01-27T03:38:16.822Z,-2.81
2017-01-27T03:39:38.873Z,-2.78
2017-01-27T03:41:00.606Z,-2.79
2017-01-27T03:42:23.506Z,-2.88
2017-01-27T03:43:45.111Z,-2.81
2017-01-27T03:45:07.278Z,-2.88
2017-01-27T03:46:28.938Z,-2.88
2017-01-27T03:47:50.681Z,-2.77
2017-01-27T03:49:13.271Z,-2.79
2017-01-27T03:50:35.384Z,-2.88
2017-01-27T03:51:57.573Z,-2.84
2017-01-27T03:53:20.048Z,-2.77
2017-01-27T03:54:42.368Z,-2.81
2017-01-27T03:56:04.407Z,-2.79
2017-01-27T03:57:25.684Z,-2.74
2017-01-27T03:58:47.383Z,-2.84
2017-01-27T04:00:09.729Z,-2.84
2017-01-27T04:01:31.419Z,-2.86
2017-01-27T04:02:53.143Z,-2.79
2017-01-27T04:04:14.394Z,-2.81
2017-01-27T04:05:36.688Z,-2.85
2017-01-27T04:06:58.849Z,-2.84
2017-01-27T04:08:21.004Z,-2.78
2017-01-27T04:09:43.569Z,-2.88
2017-01-27T04:11:05.932Z,-2.84
2017-01-27T04:12:28.378Z,-2.81
2017-01-27T04:13:49.786Z,-2.79
2017-01-27T04:15:11.850Z,-2.96
2017-01-27T04:16:33.748Z,-3.03
2017-01-27T04:17:56.602Z,-3.2
2017-01-27T04:19:19.075Z,-3.28
2017-01-27T04:20:40.758Z,-3.33
2017-01-27T04:22:03.949Z,-3.28
2017-01-27T04:23:25.617Z,-3.31
2017-01-27T04:24:48.471Z,-3.41
2017-01-27T04:26:10.631Z,-3.35
2017-01-27T04:27:33.089Z,-3.31
2017-01-27T04:28:54.763Z,-3.31
2017-01-27T04:30:16.622Z,-3.28
2017-01-27T04:31:38.292Z,-3.17
2017-01-27T04:33:00.490Z,-3.2
2017-01-27T04:34:22.548Z,-3.15
2017-01-27T04:35:44.569Z,-3.2
2017-01-27T04:37:05.857Z,-3.3
2017-01-27T04:38:28.233Z,-3.18
2017-01-27T04:39:49.940Z,-2.94
2017-01-27T04:41:10.841Z,-2.84
2017-01-27T04:42:33.365Z,-2.82
2017-01-27T04:43:55.331Z,-2.84
2017-01-27T04:45:17.388Z,-2.81
2017-01-27T04:46:39.130Z,-2.94
2017-01-27T04:48:00.792Z,-2.91
2017-01-27T04:49:23.124Z,-2.89
2017-01-27T04:50:44.470Z,-2.82
2017-01-27T04:52:06.919Z,-2.91
2017-01-27T04:53:29.768Z,-2.82
2017-01-27T04:54:52.113Z,-2.92
2017-01-27T04:56:14.681Z,-3
2017-01-27T04:57:37.179Z,-2.97
2017-01-27T04:59:00.092Z,-2.96
2017-01-27T05:00:22.020Z,-3
2017-01-27T05:01:43.691Z,-3.1
2017-01-27T05:03:05.371Z,-3.12
2017-01-27T05:04:27.424Z,-3.18
2017-01-27T05:05:49.096Z,-3.12
2017-01-27T05:07:10.760Z,-3.12
2017-01-27T05:08:32.580Z,-3.1
2017-01-27T05:09:54.687Z,-3.2
2017-01-27T05:11:16.256Z,-3.02
2017-01-27T05:12:37.899Z,-3.14
2017-01-27T05:13:59.941Z,-3.05
2017-01-27T05:15:22.389Z,-3.18
2017-01-27T05:16:45.083Z,-3.23
2017-01-27T05:18:07.321Z,-3.18
2017-01-27T05:19:29.779Z,-3.1
2017-01-27T05:20:51.921Z,-3.27
2017-01-27T05:22:14.704Z,-3.36
2017-01-27T05:23:36.752Z,-3.36
2017-01-27T05:24:58.406Z,-3.36
2017-01-27T05:26:19.649Z,-3.33
2017-01-27T05:27:42.107Z,-3.35
2017-01-27T05:29:03.753Z,-3.35
2017-01-27T05:30:26.300Z,-3.41
2017-01-27T05:31:47.960Z,-3.31
2017-01-27T05:33:09.060Z,-3.35
2017-01-27T05:34:31.344Z,-3.3
2017-01-27T05:35:53.378Z,-3.33
2017-01-27T05:37:15.427Z,-3.24
2017-01-27T05:38:37.748Z,-3.35
2017-01-27T05:39:59.804Z,-3.31
2017-01-27T05:41:22.268Z,-3.18
2017-01-27T05:42:43.507Z,-3.17
2017-01-27T05:44:05.481Z,-3.28
2017-01-27T05:45:27.928Z,-3.28
2017-01-27T05:46:50.452Z,-3.33
2017-01-27T05:48:12.120Z,-3.36
2017-01-27T05:49:35.304Z,-3.36
2017-01-27T05:50:58.146Z,-3.35
2017-01-27T05:52:19.417Z,-3.46
2017-01-27T05:53:42.296Z,-3.42
2017-01-27T05:55:04.195Z,-3.43
2017-01-27T05:56:26.728Z,-3.35
2017-01-27T05:57:47.589Z,-3.33
2017-01-27T05:59:09.676Z,-3.45
2017-01-27T06:00:32.053Z,-3.41
2017-01-27T06:01:54.559Z,-3.36
2017-01-27T06:03:16.618Z,-3.35
2017-01-27T06:04:38.367Z,-3.3
2017-01-27T06:06:01.530Z,-3.35
2017-01-27T06:07:23.755Z,-3.36
2017-01-27T06:08:45.440Z,-3.45
2017-01-27T06:10:07.107Z,-3.39
2017-01-27T06:11:29.899Z,-3.45
2017-01-27T06:12:51.988Z,-3.48
2017-01-27T06:14:13.638Z,-3.48
2017-01-27T06:15:36.544Z,-3.56
2017-01-27T06:16:58.670Z,-3.52
2017-01-27T06:18:21.203Z,-3.45
2017-01-27T06:19:43.260Z,-3.48
2017-01-27T06:21:05.772Z,-3.56
2017-01-27T06:22:27.679Z,-3.52
2017-01-27T06:23:50.183Z,-3.64
2017-01-27T06:25:12.638Z,-3.67
2017-01-27T06:26:35.200Z,-3.53
2017-01-27T06:27:57.953Z,-3.49
2017-01-27T06:29:20.020Z,-3.52
2017-01-27T06:30:41.741Z,-3.46
2017-01-27T06:32:03.793Z,-3.24
2017-01-27T06:33:26.096Z,-3.15
2017-01-27T06:34:48.145Z,-3.15
2017-01-27T06:36:10.191Z,-3.14
2017-01-27T06:37:32.261Z,-3.07
2017-01-27T06:38:53.812Z,-3.14
2017-01-27T06:40:15.478Z,-3.09
2017-01-27T06:41:37.153Z,-2.97
2017-01-27T06:42:58.828Z,-2.97
2017-01-27T06:44:21.167Z,-3.06
2017-01-27T06:45:43.358Z,-3.06
2017-01-27T06:47:05.820Z,-3
2017-01-27T06:48:27.518Z,-3
2017-01-27T06:49:49.916Z,-2.96
2017-01-27T06:51:11.306Z,-2.85
2017-01-27T06:52:33.009Z,-2.85
2017-01-27T06:53:55.200Z,-2.78
2017-01-27T06:55:17.111Z,-2.82
2017-01-27T06:56:39.606Z,-2.85
2017-01-27T06:58:00.895Z,-2.81
2017-01-27T06:59:23.397Z,-2.88
2017-01-27T07:00:45.802Z,-2.82
2017-01-27T07:02:07.067Z,-2.86
2017-01-27T07:03:28.710Z,-2.82
2017-01-27T07:04:50.810Z,-2.81
2017-01-27T07:06:13.583Z,-2.82
2017-01-27T07:07:35.371Z,-2.79
2017-01-27T07:08:57.426Z,-2.82
2017-01-27T07:10:19.925Z,-2.84
2017-01-27T07:11:41.872Z,-2.79
2017-01-27T07:13:03.945Z,-2.78
2017-01-27T07:14:25.654Z,-2.84
2017-01-27T07:15:48.129Z,-2.82
2017-01-27T07:17:10.497Z,-2.81
2017-01-27T07:18:31.809Z,-2.86
2017-01-27T07:19:53.867Z,-2.77
2017-01-27T07:21:16.427Z,-2.78
2017-01-27T07:22:39.451Z,-2.81
2017-01-27T07:24:01.523Z,-2.78
2017-01-27T07:25:23.187Z,-2.77
2017-01-27T07:26:45.495Z,-2.79
2017-01-27T07:28:08.173Z,-2.77
2017-01-27T07:29:30.248Z,-2.7
2017-01-27T07:30:52.132Z,-2.7
2017-01-27T07:32:13.808Z,-2.68
2017-01-27T07:33:36.207Z,-2.7
2017-01-27T07:34:59.144Z,-2.68
2017-01-27T07:36:20.528Z,-2.5
2017-01-27T07:37:43.117Z,-2.52
2017-01-27T07:39:05.136Z,-2.64
2017-01-27T07:40:27.219Z,-2.53
2017-01-27T07:41:49.342Z,-2.55
2017-01-27T07:43:10.700Z,-2.53
2017-01-27T07:44:33.916Z,-2.48
2017-01-27T07:45:55.692Z,-2.53
2017-01-27T07:47:17.762Z,-2.48
2017-01-27T07:48:40.317Z,-2.5
2017-01-27T07:50:02.716Z,-2.39
2017-01-27T07:51:24.794Z,-2.5
2017-01-27T07:52:46.882Z,-2.52
2017-01-27T07:54:08.957Z,-2.39
2017-01-27T07:55:30.873Z,-2.39
2017-01-27T07:56:53.041Z,-2.29
2017-01-27T07:58:15.479Z,-2.27
2017-01-27T07:59:37.253Z,-2.21
2017-01-27T08:01:00.047Z,-2.21
2017-01-27T08:02:21.725Z,-2.2
2017-01-27T08:03:44.188Z,-2.23
2017-01-27T08:05:06.348Z,-2.18
2017-01-27T08:06:27.509Z,-2.26
2017-01-27T08:07:49.960Z,-2.15
2017-01-27T08:09:12.526Z,-2.06
2017-01-27T08:10:35.001Z,-2
2017-01-27T08:11:57.855Z,-2.05
2017-01-27T08:13:20.025Z,-2.03
2017-01-27T08:14:42.066Z,-1.98
2017-01-27T08:16:03.718Z,-1.95
2017-01-27T08:17:26.418Z,-1.92
2017-01-27T08:18:49.353Z,-2.03
2017-01-27T08:20:11.514Z,-1.87
2017-01-27T08:21:33.572Z,-1.92
2017-01-27T08:22:56.302Z,-1.87
2017-01-27T08:24:17.960Z,-1.87
2017-01-27T08:25:40.518Z,-1.87
2017-01-27T08:27:03.446Z,-1.79
2017-01-27T08:28:26.160Z,-1.73
2017-01-27T08:29:48.679Z,-1.7
2017-01-27T08:31:10.348Z,-1.69
2017-01-27T08:32:32.942Z,-1.66
2017-01-27T08:33:55.635Z,-1.58
2017-01-27T08:35:17.695Z,-1.61
2017-01-27T08:36:39.757Z,-1.59
2017-01-27T08:38:01.974Z,-1.54
2017-01-27T08:39:24.277Z,-1.54
2017-01-27T08:40:46.018Z,-1.51
2017-01-27T08:42:07.744Z,-1.45
2017-01-27T08:43:29.384Z,-1.46
2017-01-27T08:44:51.403Z,-1.51
2017-01-27T08:46:13.477Z,-1.43
2017-01-27T08:47:35.937Z,-1.37
2017-01-27T08:48:58.383Z,-1.3
2017-01-27T08:50:20.500Z,-1.28
2017-01-27T08:51:41.778Z,-1.27
2017-01-27T08:53:03.095Z,-1.22
2017-01-27T08:54:26.066Z,-1.27
2017-01-27T08:55:48.382Z,-1.23
2017-01-27T08:57:10.201Z,-1.15
2017-01-27T08:58:33.077Z,-1.04
2017-01-27T08:59:55.136Z,-1.07
2017-01-27T09:01:17.147Z,-1.02
2017-01-27T09:02:39.603Z,-0.99
2017-01-27T09:04:01.667Z,-0.86
2017-01-27T09:05:23.723Z,-1.04
2017-01-27T09:06:46.023Z,-0.99
2017-01-27T09:08:06.882Z,-0.99
2017-01-27T09:09:28.976Z,-0.82
2017-01-27T09:10:50.652Z,-0.86
2017-01-27T09:12:12.155Z,-0.76
2017-01-27T09:13:34.615Z,-0.89
2017-01-27T09:14:57.244Z,-0.73
2017-01-27T09:16:19.315Z,-0.73
2017-01-27T09:17:42.013Z,-0.7
2017-01-27T09:19:04.135Z,-0.65
2017-01-27T09:20:26.173Z,-0.61
2017-01-27T09:21:47.819Z,-0.62
2017-01-27T09:23:10.134Z,-0.57
2017-01-27T09:24:31.844Z,-0.46
2017-01-27T09:25:53.902Z,-0.47
2017-01-27T09:27:16.453Z,-0.51
2017-01-27T09:28:38.751Z,-0.39
2017-01-27T09:29:59.999Z,-0.28
2017-01-27T09:31:22.166Z,-0.33
2017-01-27T09:32:44.233Z,-0.25
2017-01-27T09:34:07.042Z,-0.25
2017-01-27T09:35:29.487Z,-0.14
2017-01-27T09:36:50.773Z,-0.18
2017-01-27T09:38:13.254Z,-0.14
2017-01-27T09:39:36.112Z,-0.1
2017-01-27T09:40:58.224Z,-0.04
2017-01-27T09:42:19.887Z,0
2017-01-27T09:43:41.549Z,0.07
2017-01-27T09:45:03.616Z,0.04
2017-01-27T09:46:25.292Z,0.13
2017-01-27T09:47:47.190Z,0.13
2017-01-27T09:49:09.433Z,0.24
2017-01-27T09:50:30.578Z,0.17
2017-01-27T09:51:53.136Z,0.21
2017-01-27T09:53:14.401Z,0.21
2017-01-27T09:54:36.511Z,0.36
2017-01-27T09:55:58.839Z,0.35
2017-01-27T09:57:21.295Z,0.39
2017-01-27T09:58:43.347Z,0.41
2017-01-27T10:00:04.639Z,0.5
2017-01-27T10:01:26.649Z,0.6
2017-01-27T10:02:48.722Z,0.58
2017-01-27T10:04:10.793Z,0.61
2017-01-27T10:05:32.875Z,0.62
2017-01-27T10:06:54.950Z,0.7
2017-01-27T10:08:16.673Z,0.73
2017-01-27T10:09:38.313Z,0.78
2017-01-27T10:10:59.338Z,0.8
2017-01-27T10:12:21.714Z,0.8
2017-01-27T10:13:43.773Z,0.86
2017-01-27T10:15:05.040Z,0.87
2017-01-27T10:16:27.517Z,0.9
2017-01-27T10:17:50.271Z,0.94
2017-01-27T10:19:11.938Z,0.96
2017-01-27T10:20:34.107Z,1.05
2017-01-27T10:21:56.176Z,1.08
2017-01-27T10:23:18.636Z,1.15
2017-01-27T10:24:40.695Z,1.27
2017-01-27T10:26:02.778Z,1.29
2017-01-27T10:27:25.365Z,1.27
2017-01-27T10:28:47.320Z,1.24
2017-01-27T10:30:09.008Z,1.27
2017-01-27T10:31:30.715Z,1.37
2017-01-27T10:32:53.160Z,1.34
2017-01-27T10:34:15.874Z,1.45
2017-01-27T10:35:38.739Z,1.5
2017-01-27T10:37:00.515Z,1.52
2017-01-27T10:38:22.175Z,1.68
2017-01-27T10:39:44.474Z,1.7
2017-01-27T10:41:06.956Z,1.77
2017-01-27T10:42:29.089Z,1.73
2017-01-27T10:43:51.549Z,1.77
2017-01-27T10:45:13.962Z,1.83
2017-01-27T10:46:36.700Z,1.93
2017-01-27T10:47:58.360Z,1.98
2017-01-27T10:49:20.921Z,2
2017-01-27T10:50:43.723Z,2.1
2017-01-27T10:52:05.023Z,2.16
2017-01-27T10:53:27.158Z,2.16
2017-01-27T10:54:49.333Z,2.18
2017-01-27T10:56:11.315Z,2.14
2017-01-27T10:57:32.981Z,2.31
2017-01-27T10:58:55.051Z,2.3
2017-01-27T11:00:16.739Z,2.43
2017-01-27T11:01:38.298Z,2.38
2017-01-27T11:03:00.029Z,2.43
2017-01-27T11:04:21.683Z,2.42
2017-01-27T11:05:43.371Z,2.43
2017-01-27T11:07:06.491Z,2.52
2017-01-27T11:08:28.954Z,2.42
2017-01-27T11:09:51.083Z,2.57
2017-01-27T11:11:13.625Z,2.54
2017-01-27T11:12:36.396Z,2.57
2017-01-27T11:13:57.258Z,2.54
2017-01-27T11:15:18.927Z,2.53
2017-01-27T11:16:41.111Z,2.57
2017-01-27T11:18:03.827Z,2.54
2017-01-27T11:19:26.382Z,2.59
2017-01-27T11:20:48.064Z,2.61
2017-01-27T11:22:10.513Z,2.71
2017-01-27T11:23:32.911Z,2.79
2017-01-27T11:24:55.391Z,2.82
2017-01-27T11:26:17.476Z,2.81
2017-01-27T11:27:39.937Z,2.85
2017-01-27T11:29:02.064Z,2.82
2017-01-27T11:30:24.568Z,2.85
2017-01-27T11:31:46.481Z,2.9
2017-01-27T11:33:09.443Z,2.92
2017-01-27T11:34:31.101Z,2.93
2017-01-27T11:35:52.761Z,2.96
2017-01-27T11:37:14.947Z,3.03
2017-01-27T11:38:37.807Z,3.06
2017-01-27T11:40:00.670Z,3.14
2017-01-27T11:41:23.179Z,3.15
2017-01-27T11:42:44.861Z,3.17
2017-01-27T11:44:07.877Z,3.14
2017-01-27T11:45:30.371Z,3.18
2017-01-27T11:46:52.474Z,3.26
2017-01-27T11:48:14.546Z,3.32
2017-01-27T11:49:36.210Z,3.31
2017-01-27T11:50:57.728Z,3.28
2017-01-27T11:52:19.779Z,3.32
2017-01-27T11:53:41.910Z,3.45
2017-01-27T11:55:03.979Z,3.39
2017-01-27T11:56:26.306Z,3.26
2017-01-27T11:57:48.768Z,3.4
2017-01-27T11:59:11.255Z,3.4
2017-01-27T12:00:33.382Z,3.43
2017-01-27T12:01:55.397Z,3.42
2017-01-27T12:03:17.557Z,3.52
2017-01-27T12:04:39.638Z,3.68
2017-01-27T12:06:01.870Z,3.72
2017-01-27T12:07:23.983Z,3.83
2017-01-27T12:08:46.479Z,3.86
2017-01-27T12:10:08.928Z,3.98
2017-01-27T12:11:31.095Z,3.98
2017-01-27T12:12:53.197Z,4.08
2017-01-27T12:14:14.971Z,4.09
2017-01-27T12:15:36.243Z,4.06
2017-01-27T12:16:58.679Z,4.09
2017-01-27T12:18:21.442Z,4.11
2017-01-27T12:19:44.302Z,4.12
2017-01-27T12:21:05.633Z,4.16
2017-01-27T12:22:27.701Z,4.12
2017-01-27T12:23:50.179Z,4.11
2017-01-27T12:25:11.850Z,4.2
2017-01-27T12:26:34.463Z,4.14
2017-01-27T12:27:56.560Z,4.15
2017-01-27T12:29:18.522Z,4.08
2017-01-27T12:30:39.786Z,4.09
2017-01-27T12:32:02.260Z,4.09
2017-01-27T12:33:24.728Z,4.12
2017-01-27T12:34:47.077Z,4.15
2017-01-27T12:36:08.470Z,4.14
2017-01-27T12:37:30.136Z,4.12
2017-01-27T12:38:52.258Z,4.12
2017-01-27T12:40:13.818Z,4.22
2017-01-27T12:41:36.260Z,4.04
2017-01-27T12:42:58.607Z,4.05
2017-01-27T12:44:21.088Z,4.16
2017-01-27T12:45:43.571Z,4.16
2017-01-27T12:47:06.046Z,4.11
2017-01-27T12:48:28.906Z,4.15
2017-01-27T12:49:51.481Z,4.24
2017-01-27T12:51:13.439Z,4.24
2017-01-27T12:52:36.103Z,4.23
2017-01-27T12:53:57.764Z,4.22
2017-01-27T12:55:19.025Z,4.15
2017-01-27T12:56:42.237Z,4.23
2017-01-27T12:58:03.900Z,4.27
2017-01-27T12:59:26.079Z,4.36
2017-01-27T13:00:48.202Z,4.42
2017-01-27T13:02:10.925Z,4.36
2017-01-27T13:03:32.828Z,4.54
2017-01-27T13:04:54.886Z,4.55
2017-01-27T13:06:16.722Z,4.51
2017-01-27T13:07:38.659Z,4.6
2017-01-27T13:09:00.750Z,4.59
2017-01-27T13:10:22.539Z,4.65
2017-01-27T13:11:43.818Z,4.66
2017-01-27T13:13:05.840Z,4.66
2017-01-27T13:14:27.521Z,4.7
2017-01-27T13:15:49.627Z,4.86
2017-01-27T13:17:10.903Z,4.82
2017-01-27T13:18:33.365Z,4.86
2017-01-27T13:19:55.840Z,4.89
2017-01-27T13:21:18.714Z,4.86
2017-01-27T13:22:40.799Z,4.89
2017-01-27T13:24:03.202Z,5
2017-01-27T13:25:25.479Z,5.04
2017-01-27T13:26:47.611Z,5.09
2017-01-27T13:28:09.681Z,5.18
2017-01-27T13:29:32.422Z,5.31
2017-01-27T13:30:54.553Z,5.22
2017-01-27T13:32:17.771Z,5.25
2017-01-27T13:33:40.232Z,5.28
2017-01-27T13:35:02.227Z,5.42
2017-01-27T13:36:23.900Z,5.39
2017-01-27T13:37:45.998Z,5.36
2017-01-27T13:39:07.254Z,5.31
2017-01-27T13:40:29.973Z,5.35
2017-01-27T13:41:51.632Z,5.35
2017-01-27T13:43:13.302Z,5.43
2017-01-27T13:44:34.962Z,5.46
2017-01-27T13:45:57.437Z,5.39
2017-01-27T13:47:18.821Z,5.42
2017-01-27T13:48:40.969Z,5.38
2017-01-27T13:50:03.072Z,5.4
2017-01-27T13:51:25.402Z,5.43
2017-01-27T13:52:46.680Z,5.4
2017-01-27T13:54:08.344Z,5.46
2017-01-27T13:55:30.504Z,5.53
2017-01-27T13:56:53.223Z,5.46
2017-01-27T13:58:15.805Z,5.51
2017-01-27T13:59:37.924Z,5.56
2017-01-27T14:01:00.494Z,5.56
2017-01-27T14:02:54.863Z,5.38
2017-01-27T14:04:16.193Z,5.38
2017-01-27T14:05:37.884Z,5.42
2017-01-27T14:07:00.262Z,5.35
2017-01-27T14:08:22.425Z,5.28
2017-01-27T14:09:44.599Z,5.28
2017-01-27T14:11:07.056Z,5.27
2017-01-27T14:12:29.057Z,5.17
2017-01-27T14:13:51.931Z,5.1
2017-01-27T14:15:14.945Z,5.1
2017-01-27T14:16:36.865Z,5.09
2017-01-27T14:17:58.409Z,5
2017-01-27T14:19:20.953Z,5.06
2017-01-27T14:20:42.604Z,4.96
2017-01-27T14:22:05.076Z,4.85
2017-01-27T14:23:27.446Z,4.85
2017-01-27T14:24:49.133Z,4.73
2017-01-27T14:26:11.605Z,4.82
2017-01-27T14:27:33.787Z,4.86
2017-01-27T14:28:57.032Z,4.66
2017-01-27T14:30:19.554Z,4.6
2017-01-27T14:31:40.915Z,4.65
2017-01-27T14:33:02.982Z,4.55
2017-01-27T14:34:24.597Z,4.5
2017-01-27T14:35:47.108Z,4.44
2017-01-27T14:37:08.389Z,4.4
2017-01-27T14:38:30.208Z,4.41
2017-01-27T14:39:52.135Z,4.33
2017-01-27T14:41:15.062Z,4.24
2017-01-27T14:42:35.935Z,4.12
2017-01-27T14:43:58.601Z,4.27
2017-01-27T14:45:20.938Z,4.14
2017-01-27T14:46:43.030Z,4.16
2017-01-27T14:48:05.115Z,4.16
2017-01-27T14:49:27.275Z,4.08
2017-01-27T14:50:49.937Z,4.08
2017-01-27T14:52:12.839Z,4.05
2017-01-27T14:53:34.924Z,4.05
2017-01-27T14:54:57.005Z,3.97
2017-01-27T14:56:19.357Z,3.94
2017-01-27T14:57:41.022Z,4
2017-01-27T14:59:03.953Z,3.96
2017-01-27T15:00:25.646Z,3.98
2017-01-27T15:01:48.081Z,3.9
2017-01-27T15:03:10.513Z,3.88
2017-01-27T15:04:32.586Z,3.9
2017-01-27T15:05:55.534Z,3.9
2017-01-27T15:07:18.156Z,3.87
2017-01-27T15:08:40.419Z,3.91
2017-01-27T15:10:02.642Z,3.94
2017-01-27T15:11:25.174Z,3.84
2017-01-27T15:12:48.047Z,3.73
2017-01-27T15:14:10.506Z,3.7
2017-01-27T15:15:33.164Z,3.7
2017-01-27T15:16:54.843Z,3.72
2017-01-27T15:18:17.697Z,3.61
2017-01-27T15:19:39.370Z,3.58
2017-01-27T15:21:01.976Z,3.51
2017-01-27T15:22:24.092Z,3.55
2017-01-27T15:23:46.420Z,3.42
2017-01-27T15:25:08.494Z,3.52
2017-01-27T15:26:30.945Z,3.42
2017-01-27T15:27:53.025Z,3.43
2017-01-27T15:29:15.820Z,3.47
2017-01-27T15:30:38.714Z,3.39
2017-01-27T15:32:01.203Z,3.42
2017-01-27T15:33:22.884Z,3.4
2017-01-27T15:34:45.828Z,3.33
2017-01-27T15:36:08.066Z,3.28
2017-01-27T15:37:30.565Z,3.2
2017-01-27T15:38:53.033Z,3.31
2017-01-27T15:40:15.428Z,3.29
2017-01-27T15:41:37.099Z,3.32
2017-01-27T15:42:59.726Z,3.18
2017-01-27T15:44:21.820Z,3.17
2017-01-27T15:45:43.828Z,3.2
2017-01-27T15:47:06.308Z,3.13
2017-01-27T15:48:28.819Z,3.15
2017-01-27T15:49:50.493Z,3.05
2017-01-27T15:51:12.032Z,3.17
2017-01-27T15:52:34.488Z,3.13
2017-01-27T15:53:57.025Z,3.1
2017-01-27T15:55:19.575Z,3.03
2017-01-27T15:56:42.377Z,3.08
2017-01-27T15:58:05.557Z,3.02
2017-01-27T15:59:28.437Z,3.11
2017-01-27T16:00:50.915Z,2.97
2017-01-27T16:02:12.899Z,2.95
2017-01-27T16:03:34.578Z,2.89
2017-01-27T16:04:57.111Z,2.9
2017-01-27T16:06:19.605Z,2.9
2017-01-27T16:07:41.654Z,2.84
2017-01-27T16:09:03.717Z,2.82
2017-01-27T16:10:25.482Z,2.93
2017-01-27T16:11:47.170Z,2.93
2017-01-27T16:13:09.618Z,2.92
2017-01-27T16:14:31.332Z,2.87
2017-01-27T16:15:53.820Z,2.87
2017-01-27T16:17:15.899Z,2.93
2017-01-27T16:18:38.225Z,2.82
2017-01-27T16:20:00.312Z,2.74
2017-01-27T16:21:22.792Z,2.75
2017-01-27T16:22:45.310Z,2.71
2017-01-27T16:24:07.769Z,2.71
2017-01-27T16:25:29.488Z,2.72
2017-01-27T16:26:51.963Z,2.6
2017-01-27T16:28:13.245Z,2.59
2017-01-27T16:29:35.193Z,2.6
2017-01-27T16:30:56.072Z,2.6
2017-01-27T16:32:18.637Z,2.56
2017-01-27T16:33:41.505Z,2.54
2017-01-27T16:35:04.247Z,2.66
2017-01-27T16:36:26.346Z,2.63
2017-01-27T16:37:48.805Z,2.66
2017-01-27T16:39:10.481Z,2.63
2017-01-27T16:40:32.466Z,2.61
2017-01-27T16:41:54.143Z,2.52
2017-01-27T16:43:15.816Z,2.57
2017-01-27T16:44:38.371Z,2.59
2017-01-27T16:46:00.006Z,2.53
2017-01-27T16:47:22.925Z,2.57
2017-01-27T16:48:45.905Z,2.6
2017-01-27T16:50:08.501Z,2.67
2017-01-27T16:51:31.332Z,2.74
2017-01-27T16:52:53.460Z,2.67
2017-01-27T16:54:15.541Z,2.66
2017-01-27T16:55:38.522Z,2.57
2017-01-27T16:57:01.303Z,2.56
2017-01-27T16:58:22.973Z,2.66
2017-01-27T16:59:45.128Z,2.6
2017-01-27T17:01:07.240Z,2.66
2017-01-27T17:02:29.642Z,2.63
2017-01-27T17:03:51.728Z,2.59
2017-01-27T17:05:13.004Z,2.6
2017-01-27T17:06:35.056Z,2.67
2017-01-27T17:07:57.431Z,2.59
2017-01-27T17:09:19.117Z,2.53
2017-01-27T17:10:40.808Z,2.59
2017-01-27T17:12:03.526Z,2.56
2017-01-27T17:13:26.061Z,2.49
2017-01-27T17:14:48.533Z,2.48
2017-01-27T17:16:11.060Z,2.59
2017-01-27T17:17:34.019Z,2.57
2017-01-27T17:18:56.006Z,2.61
2017-01-27T17:20:18.464Z,2.63
2017-01-27T17:21:40.957Z,2.63
2017-01-27T17:23:03.955Z,2.57
2017-01-27T17:24:27.083Z,2.59
2017-01-27T17:25:49.589Z,2.56
2017-01-27T17:27:12.461Z,2.53
2017-01-27T17:28:35.016Z,2.54
2017-01-27T17:29:57.787Z,2.46
2017-01-27T17:31:19.876Z,2.54
2017-01-27T17:32:42.347Z,2.41
2017-01-27T17:34:05.219Z,2.53
2017-01-27T17:35:27.599Z,2.57
2017-01-27T17:36:50.479Z,2.57
2017-01-27T17:38:12.585Z,2.53
2017-01-27T17:39:34.767Z,2.49
2017-01-27T17:40:57.224Z,2.52
2017-01-27T17:42:18.600Z,2.35
2017-01-27T17:43:41.128Z,2.41
2017-01-27T17:45:02.810Z,2.52
2017-01-27T17:46:25.592Z,2.42
2017-01-27T17:47:47.697Z,2.46
2017-01-27T17:49:10.166Z,2.46
2017-01-27T17:50:32.011Z,2.38
2017-01-27T17:51:55.180Z,2.35
2017-01-27T17:53:17.737Z,2.39
2017-01-27T17:54:40.662Z,2.34
2017-01-27T17:56:02.402Z,2.31
2017-01-27T17:57:24.733Z,2.31
2017-01-27T17:58:47.250Z,2.28
2017-01-27T18:00:09.368Z,2.25